ARG1302 SAEZ-KMIA
Flight info
| Callsign | ARG1302 |
|---|---|
| Flight time | N/A |
| Altitude | 32000 |
| Route | BIVAM1J BIVAM UW8 PAR UL417 IMBER/N0495F340 UL417 PABON/N0491F360 UL417 LENAX UL795 ALTIB UM779 ZEUSS VIICE2 |
| Aircraft | A346/H-SDE2E3FGHIJ3J4J5M1RWXY/LB1D1 |
Departure
| Time | 2026-05-01 14:10 |
|---|---|
| Airport | Ezeiza International Airport - Ministro Pistarini (SAEZ) |
Arrival
| Time | N/A |
|---|---|
| Airport | Miami International Airport (KMIA) |
| Time | Latitude | Longitude | Altitude | Speed | Heading |
|---|---|---|---|---|---|
| 2026-05-01 13:22 | -34.81632 | -58.54455 | 80 ft | 0 kts | 11° |
| 2026-05-01 13:53 | -34.81662 | -58.54463 | 80 ft | 2 kts | 11° |
| 2026-05-01 13:53 | -34.81683 | -58.54468 | 80 ft | 2 kts | 12° |
| 2026-05-01 13:54 | -34.81699 | -58.54472 | 80 ft | 2 kts | 12° |
| 2026-05-01 13:54 | -34.81709 | -58.54475 | 80 ft | 2 kts | 16° |
| 2026-05-01 13:54 | -34.81729 | -58.54488 | 80 ft | 2 kts | 40° |
| 2026-05-01 13:54 | -34.81737 | -58.54497 | 80 ft | 2 kts | 49° |
| 2026-05-01 13:55 | -34.81746 | -58.54512 | 80 ft | 2 kts | 63° |
| 2026-05-01 13:55 | -34.81752 | -58.54536 | 80 ft | 2 kts | 81° |
| 2026-05-01 13:55 | -34.81753 | -58.54543 | 80 ft | 0 kts | 86° |
| 2026-05-01 13:55 | -34.81750 | -58.54499 | 80 ft | 6 kts | 88° |
| 2026-05-01 13:56 | -34.81752 | -58.54474 | 80 ft | 2 kts | 95° |
| 2026-05-01 13:56 | -34.81752 | -58.54465 | 80 ft | 0 kts | 96° |
| 2026-05-01 13:59 | -34.81752 | -58.54463 | 80 ft | 1 kts | 96° |
| 2026-05-01 14:00 | -34.81755 | -58.54438 | 80 ft | 4 kts | 96° |
| 2026-05-01 14:00 | -34.81763 | -58.54363 | 80 ft | 8 kts | 96° |
| 2026-05-01 14:00 | -34.81772 | -58.54277 | 80 ft | 11 kts | 97° |
| 2026-05-01 14:00 | -34.81786 | -58.54172 | 80 ft | 13 kts | 99° |
| 2026-05-01 14:01 | -34.81792 | -58.54091 | 80 ft | 14 kts | 86° |
| 2026-05-01 14:01 | -34.81758 | -58.53970 | 80 ft | 15 kts | 61° |
| 2026-05-01 14:01 | -34.81714 | -58.53872 | 80 ft | 10 kts | 65° |
| 2026-05-01 14:01 | -34.81734 | -58.53745 | 80 ft | 13 kts | 133° |
| 2026-05-01 14:02 | -34.81779 | -58.53703 | 80 ft | 9 kts | 149° |
| 2026-05-01 14:02 | -34.81827 | -58.53674 | 80 ft | 5 kts | 154° |
| 2026-05-01 14:02 | -34.81856 | -58.53657 | 80 ft | 7 kts | 154° |
| 2026-05-01 14:02 | -34.81917 | -58.53622 | 80 ft | 10 kts | 155° |
| 2026-05-01 14:03 | -34.81996 | -58.53577 | 80 ft | 12 kts | 154° |
| 2026-05-01 14:03 | -34.82088 | -58.53524 | 80 ft | 14 kts | 154° |
| 2026-05-01 14:03 | -34.82227 | -58.53444 | 80 ft | 16 kts | 154° |
| 2026-05-01 14:03 | -34.82340 | -58.53376 | 80 ft | 17 kts | 154° |
| 2026-05-01 14:04 | -34.82420 | -58.53329 | 80 ft | 18 kts | 154° |
| 2026-05-01 14:04 | -34.82544 | -58.53256 | 80 ft | 18 kts | 154° |
| 2026-05-01 14:04 | -34.82672 | -58.53180 | 80 ft | 19 kts | 154° |
| 2026-05-01 14:04 | -34.82805 | -58.53102 | 80 ft | 20 kts | 154° |
| 2026-05-01 14:05 | -34.82987 | -58.52996 | 80 ft | 21 kts | 154° |
| 2026-05-01 14:05 | -34.83131 | -58.52912 | 80 ft | 21 kts | 154° |
| 2026-05-01 14:05 | -34.83228 | -58.52856 | 80 ft | 22 kts | 154° |
| 2026-05-01 14:05 | -34.83375 | -58.52770 | 80 ft | 22 kts | 154° |
| 2026-05-01 14:06 | -34.83488 | -58.52705 | 80 ft | 15 kts | 154° |
| 2026-05-01 14:06 | -34.83563 | -58.52661 | 80 ft | 8 kts | 151° |
| 2026-05-01 14:06 | -34.83585 | -58.52617 | 80 ft | 0 kts | 94° |
| 2026-05-01 14:08 | -34.83585 | -58.52592 | 80 ft | 4 kts | 83° |
| 2026-05-01 14:08 | -34.83568 | -58.52550 | 80 ft | 6 kts | 47° |
| 2026-05-01 14:08 | -34.83519 | -58.52507 | 80 ft | 9 kts | 31° |
| 2026-05-01 14:09 | -34.83474 | -58.52488 | 80 ft | 10 kts | 5° |
| 2026-05-01 14:09 | -34.83355 | -58.52515 | 80 ft | 13 kts | 345° |
| 2026-05-01 14:09 | -34.83240 | -58.52555 | 80 ft | 45 kts | 343° |
| 2026-05-01 14:09 | -34.82663 | -58.52758 | 81 ft | 115 kts | 344° |
| 2026-05-01 14:10 | -34.81186 | -58.53273 | 82 ft | 190 kts | 343° |
| 2026-05-01 14:10 | -34.79789 | -58.53762 | 619 ft | 198 kts | 345° |
| 2026-05-01 14:10 | -34.78413 | -58.54198 | 1364 ft | 195 kts | 345° |
| 2026-05-01 14:10 | -34.77502 | -58.54487 | 1931 ft | 191 kts | 343° |
| 2026-05-01 14:11 | -34.76294 | -58.55289 | 2355 ft | 200 kts | 315° |
| 2026-05-01 14:11 | -34.75617 | -58.58934 | 2977 ft | 241 kts | 267° |
| 2026-05-01 14:11 | -34.75861 | -58.61837 | 3618 ft | 256 kts | 268° |
| 2026-05-01 14:12 | -34.76036 | -58.64049 | 4358 ft | 258 kts | 268° |
| 2026-05-01 14:12 | -34.76152 | -58.65540 | 4866 ft | 259 kts | 268° |
| 2026-05-01 14:12 | -34.76328 | -58.67842 | 5644 ft | 260 kts | 268° |
| 2026-05-01 14:12 | -34.76540 | -58.70147 | 6404 ft | 263 kts | 259° |
| 2026-05-01 14:13 | -34.77405 | -58.72130 | 7119 ft | 275 kts | 230° |
| 2026-05-01 14:13 | -34.79062 | -58.73447 | 7858 ft | 287 kts | 202° |
| 2026-05-01 14:13 | -34.81770 | -58.73782 | 8680 ft | 300 kts | 185° |
| 2026-05-01 14:13 | -34.84016 | -58.73703 | 9276 ft | 309 kts | 179° |
| 2026-05-01 14:14 | -34.86265 | -58.73295 | 9914 ft | 316 kts | 171° |
| 2026-05-01 14:14 | -34.87731 | -58.72817 | 10306 ft | 322 kts | 165° |
| 2026-05-01 14:14 | -34.89942 | -58.71742 | 10652 ft | 339 kts | 156° |
| 2026-05-01 14:14 | -34.92717 | -58.69275 | 11073 ft | 362 kts | 127° |
| 2026-05-01 14:15 | -34.93840 | -58.66494 | 11660 ft | 364 kts | 101° |
| 2026-05-01 14:15 | -34.94047 | -58.64420 | 12099 ft | 361 kts | 85° |
| 2026-05-01 14:15 | -34.93146 | -58.60504 | 12839 ft | 355 kts | 54° |
| 2026-05-01 14:15 | -34.92062 | -58.58837 | 13051 ft | 357 kts | 38° |
| 2026-05-01 14:16 | -34.89925 | -58.57185 | 13337 ft | 358 kts | 18° |
| 2026-05-01 14:16 | -34.87519 | -58.56049 | 13611 ft | 372 kts | 17° |
| 2026-05-01 14:16 | -34.84100 | -58.54525 | 13954 ft | 387 kts | 8° |
| 2026-05-01 14:16 | -34.81281 | -58.54550 | 14347 ft | 382 kts | 341° |
| 2026-05-01 14:17 | -34.79541 | -58.55363 | 14851 ft | 377 kts | 332° |
| 2026-05-01 14:17 | -34.76978 | -58.56778 | 15625 ft | 377 kts | 333° |
| 2026-05-01 14:17 | -34.73481 | -58.58593 | 16454 ft | 382 kts | 334° |
| 2026-05-01 14:17 | -34.71714 | -58.59477 | 16865 ft | 385 kts | 334° |
| 2026-05-01 14:18 | -34.68205 | -58.61190 | 17716 ft | 387 kts | 335° |
| 2026-05-01 14:18 | -34.65559 | -58.62461 | 18296 ft | 391 kts | 335° |
| 2026-05-01 14:18 | -34.63757 | -58.63321 | 18683 ft | 392 kts | 335° |
| 2026-05-01 14:18 | -34.61067 | -58.64599 | 19274 ft | 394 kts | 335° |
| 2026-05-01 14:19 | -34.58398 | -58.65861 | 19835 ft | 397 kts | 335° |
| 2026-05-01 14:19 | -34.55704 | -58.67134 | 20372 ft | 400 kts | 335° |
| 2026-05-01 14:19 | -34.52072 | -58.68845 | 21117 ft | 402 kts | 335° |
| 2026-05-01 14:19 | -34.49384 | -58.70107 | 21639 ft | 404 kts | 335° |
| 2026-05-01 14:20 | -34.47555 | -58.70965 | 21971 ft | 406 kts | 335° |
| 2026-05-01 14:20 | -34.42108 | -58.73523 | 22961 ft | 411 kts | 335° |
| 2026-05-01 14:20 | -34.39399 | -58.74794 | 23435 ft | 413 kts | 335° |
| 2026-05-01 14:21 | -34.36683 | -58.76066 | 23880 ft | 416 kts | 335° |
| 2026-05-01 14:21 | -34.32994 | -58.77793 | 24451 ft | 420 kts | 335° |
| 2026-05-01 14:21 | -34.31138 | -58.78660 | 24737 ft | 421 kts | 335° |
| 2026-05-01 14:22 | -34.24577 | -58.81726 | 25721 ft | 427 kts | 335° |
| 2026-05-01 14:22 | -34.21738 | -58.83051 | 26138 ft | 430 kts | 335° |
| 2026-05-01 14:22 | -34.19841 | -58.83935 | 26406 ft | 431 kts | 335° |
| 2026-05-01 14:22 | -34.17017 | -58.85251 | 26782 ft | 434 kts | 335° |
| 2026-05-01 14:23 | -34.14156 | -58.86584 | 27162 ft | 436 kts | 335° |
| 2026-05-01 14:23 | -34.11290 | -58.87916 | 27541 ft | 438 kts | 335° |
| 2026-05-01 14:23 | -34.07458 | -58.89698 | 28004 ft | 442 kts | 335° |
| 2026-05-01 14:23 | -34.05495 | -58.90611 | 28239 ft | 443 kts | 335° |
| 2026-05-01 14:24 | -34.02634 | -58.91938 | 28591 ft | 445 kts | 335° |
| 2026-05-01 14:24 | -33.98772 | -58.93903 | 29225 ft | 441 kts | 332° |
| 2026-05-01 14:24 | -33.96878 | -58.95006 | 29577 ft | 439 kts | 330° |
| 2026-05-01 14:24 | -33.93148 | -58.97456 | 30251 ft | 434 kts | 326° |
| 2026-05-01 14:25 | -33.90399 | -58.99463 | 30630 ft | 434 kts | 326° |
| 2026-05-01 14:25 | -33.88647 | -59.00740 | 30856 ft | 435 kts | 326° |
| 2026-05-01 14:25 | -33.85023 | -59.03363 | 31298 ft | 436 kts | 326° |
| 2026-05-01 14:25 | -33.82272 | -59.05353 | 31604 ft | 437 kts | 326° |
| 2026-05-01 14:26 | -33.79533 | -59.07338 | 31864 ft | 438 kts | 325° |
| 2026-05-01 14:26 | -33.74883 | -59.10717 | 31905 ft | 439 kts | 325° |
| 2026-05-01 14:27 | -33.69452 | -59.14663 | 31913 ft | 439 kts | 325° |
| 2026-05-01 14:27 | -33.63132 | -59.19250 | 31910 ft | 438 kts | 325° |
| 2026-05-01 14:28 | -33.56027 | -59.24397 | 31910 ft | 440 kts | 325° |
| 2026-05-01 14:28 | -33.50732 | -59.28228 | 31914 ft | 439 kts | 325° |
| 2026-05-01 14:29 | -33.44585 | -59.32671 | 31910 ft | 439 kts | 325° |
| 2026-05-01 14:30 | -33.34773 | -59.39743 | 31914 ft | 440 kts | 325° |
| 2026-05-01 14:31 | -33.26837 | -59.45451 | 31912 ft | 439 kts | 325° |
| 2026-05-01 14:31 | -33.21560 | -59.49241 | 31914 ft | 439 kts | 325° |
| 2026-05-01 14:32 | -33.15415 | -59.53645 | 31905 ft | 439 kts | 325° |
| 2026-05-01 14:32 | -33.10146 | -59.57414 | 31917 ft | 440 kts | 325° |
| 2026-05-01 14:33 | -33.05743 | -59.60563 | 31908 ft | 440 kts | 325° |
| 2026-05-01 14:33 | -33.00451 | -59.64341 | 31917 ft | 439 kts | 325° |
| 2026-05-01 14:34 | -32.94286 | -59.68758 | 31909 ft | 439 kts | 325° |
| 2026-05-01 14:34 | -32.89875 | -59.71916 | 31917 ft | 440 kts | 325° |
| 2026-05-01 14:35 | -32.84548 | -59.75690 | 31905 ft | 439 kts | 326° |
| 2026-05-01 14:35 | -32.79201 | -59.79474 | 31915 ft | 439 kts | 325° |
| 2026-05-01 14:36 | -32.73047 | -59.83834 | 31913 ft | 439 kts | 325° |
| 2026-05-01 14:36 | -32.68641 | -59.86954 | 31913 ft | 439 kts | 325° |
| 2026-05-01 14:37 | -32.63371 | -59.90682 | 31911 ft | 439 kts | 325° |
| 2026-05-01 14:37 | -32.58064 | -59.94426 | 31912 ft | 439 kts | 325° |
| 2026-05-01 14:38 | -32.51775 | -59.98856 | 31906 ft | 439 kts | 325° |
| 2026-05-01 14:38 | -32.46359 | -60.02672 | 31909 ft | 439 kts | 325° |
| 2026-05-01 14:39 | -32.41847 | -60.05847 | 31915 ft | 439 kts | 325° |
| 2026-05-01 14:39 | -32.36462 | -60.09631 | 31915 ft | 438 kts | 325° |
| 2026-05-01 14:40 | -32.31030 | -60.13443 | 31912 ft | 439 kts | 325° |
| 2026-05-01 14:40 | -32.25647 | -60.17217 | 31908 ft | 438 kts | 325° |
| 2026-05-01 14:41 | -32.20253 | -60.20993 | 31902 ft | 439 kts | 325° |
| 2026-05-01 14:41 | -32.14896 | -60.24736 | 31909 ft | 438 kts | 325° |
| 2026-05-01 14:42 | -32.09508 | -60.28499 | 31909 ft | 438 kts | 324° |
| 2026-05-01 14:42 | -32.04192 | -60.32206 | 31915 ft | 438 kts | 324° |
| 2026-05-01 14:43 | -31.98859 | -60.35919 | 31907 ft | 438 kts | 324° |
| 2026-05-01 14:43 | -31.93588 | -60.39585 | 31911 ft | 438 kts | 324° |
| 2026-05-01 14:44 | -31.88278 | -60.43270 | 31915 ft | 439 kts | 324° |
| 2026-05-01 14:44 | -31.80049 | -60.48414 | 31907 ft | 442 kts | 330° |
| 2026-05-01 14:45 | -31.71333 | -60.52329 | 31906 ft | 445 kts | 334° |
| 2026-05-01 14:46 | -31.65442 | -60.54805 | 31900 ft | 445 kts | 334° |
| 2026-05-01 14:46 | -31.56652 | -60.58485 | 31897 ft | 445 kts | 334° |
| 2026-05-01 14:47 | -31.50792 | -60.60930 | 31893 ft | 444 kts | 334° |
| 2026-05-01 14:48 | -31.41013 | -60.65000 | 31886 ft | 445 kts | 334° |
| 2026-05-01 14:48 | -31.33170 | -60.68290 | 31888 ft | 444 kts | 334° |
| 2026-05-01 14:49 | -31.21508 | -60.73140 | 31882 ft | 445 kts | 334° |
| 2026-05-01 14:50 | -31.09762 | -60.77995 | 31883 ft | 444 kts | 334° |
| 2026-05-01 14:51 | -31.00015 | -60.82011 | 31880 ft | 444 kts | 334° |
| 2026-05-01 14:52 | -30.91207 | -60.85634 | 31876 ft | 445 kts | 334° |
| 2026-05-01 14:53 | -30.83358 | -60.88840 | 31875 ft | 444 kts | 334° |
| 2026-05-01 14:53 | -30.77480 | -60.91239 | 31878 ft | 444 kts | 334° |
| 2026-05-01 14:54 | -30.70651 | -60.94030 | 31872 ft | 444 kts | 334° |
| 2026-05-01 14:54 | -30.65788 | -60.96017 | 31870 ft | 444 kts | 334° |
| 2026-05-01 14:55 | -30.59943 | -60.98404 | 31874 ft | 444 kts | 333° |
| 2026-05-01 14:55 | -30.53080 | -61.01205 | 31872 ft | 443 kts | 334° |
| 2026-05-01 14:56 | -30.48199 | -61.03193 | 31870 ft | 444 kts | 333° |
| 2026-05-01 14:56 | -30.42342 | -61.05577 | 31873 ft | 444 kts | 333° |
| 2026-05-01 14:57 | -30.36466 | -61.07962 | 31873 ft | 444 kts | 333° |
| 2026-05-01 14:57 | -30.26708 | -61.11911 | 31876 ft | 444 kts | 333° |
| 2026-05-01 14:58 | -30.21825 | -61.13886 | 31876 ft | 444 kts | 333° |
| 2026-05-01 14:58 | -30.15922 | -61.16272 | 31873 ft | 444 kts | 333° |
| 2026-05-01 14:59 | -30.10036 | -61.18648 | 31875 ft | 444 kts | 333° |
| 2026-05-01 14:59 | -30.04164 | -61.21017 | 31876 ft | 444 kts | 333° |
| 2026-05-01 15:00 | -29.95316 | -61.24579 | 31877 ft | 445 kts | 333° |
| 2026-05-01 15:01 | -29.88472 | -61.27329 | 31881 ft | 444 kts | 333° |
| 2026-05-01 15:01 | -29.83588 | -61.29277 | 31881 ft | 444 kts | 333° |
| 2026-05-01 15:02 | -29.76726 | -61.32017 | 31883 ft | 444 kts | 333° |
| 2026-05-01 15:02 | -29.71843 | -61.33969 | 31882 ft | 443 kts | 333° |
| 2026-05-01 15:03 | -29.65010 | -61.36700 | 31883 ft | 443 kts | 333° |
| 2026-05-01 15:03 | -29.60103 | -61.38662 | 31885 ft | 443 kts | 334° |
| 2026-05-01 15:04 | -29.53305 | -61.41373 | 31886 ft | 443 kts | 333° |
| 2026-05-01 15:04 | -29.48406 | -61.43325 | 31886 ft | 443 kts | 333° |
| 2026-05-01 15:05 | -29.42564 | -61.45652 | 31886 ft | 442 kts | 334° |
| 2026-05-01 15:05 | -29.36723 | -61.47974 | 31888 ft | 442 kts | 334° |
| 2026-05-01 15:06 | -29.30865 | -61.50302 | 31888 ft | 442 kts | 334° |
| 2026-05-01 15:06 | -29.24044 | -61.53007 | 31888 ft | 442 kts | 334° |
| 2026-05-01 15:07 | -29.19187 | -61.54930 | 31890 ft | 442 kts | 334° |
| 2026-05-01 15:07 | -29.13310 | -61.57258 | 31887 ft | 442 kts | 334° |
| 2026-05-01 15:08 | -29.07451 | -61.59573 | 31891 ft | 443 kts | 334° |
| 2026-05-01 15:08 | -29.01575 | -61.61894 | 31887 ft | 443 kts | 334° |
| 2026-05-01 15:09 | -28.95712 | -61.64206 | 31888 ft | 442 kts | 334° |
| 2026-05-01 15:09 | -28.89876 | -61.66519 | 31884 ft | 443 kts | 334° |
| 2026-05-01 15:10 | -28.84005 | -61.68840 | 31886 ft | 443 kts | 334° |
| 2026-05-01 15:10 | -28.74218 | -61.72681 | 31883 ft | 444 kts | 334° |
| 2026-05-01 15:11 | -28.66365 | -61.75756 | 31886 ft | 444 kts | 334° |
| 2026-05-01 15:12 | -28.59511 | -61.78436 | 31884 ft | 444 kts | 334° |
| 2026-05-01 15:12 | -28.51685 | -61.81495 | 31884 ft | 445 kts | 335° |
| 2026-05-01 15:14 | -28.36955 | -61.87230 | 31883 ft | 446 kts | 335° |
| 2026-05-01 15:14 | -28.28119 | -61.90666 | 31879 ft | 446 kts | 334° |
| 2026-05-01 15:15 | -28.16320 | -61.95244 | 31879 ft | 445 kts | 334° |
| 2026-05-01 15:16 | -28.04441 | -61.99844 | 31879 ft | 447 kts | 334° |
| 2026-05-01 15:18 | -27.89652 | -62.05556 | 31878 ft | 446 kts | 335° |
| 2026-05-01 15:19 | -27.77777 | -62.10107 | 31877 ft | 446 kts | 335° |
| 2026-05-01 15:19 | -27.67945 | -62.13881 | 31882 ft | 446 kts | 335° |
| 2026-05-01 15:20 | -27.60072 | -62.16903 | 31879 ft | 446 kts | 335° |
| 2026-05-01 15:21 | -27.54144 | -62.19175 | 31879 ft | 446 kts | 335° |
| 2026-05-01 15:21 | -27.48229 | -62.21439 | 31882 ft | 446 kts | 335° |
| 2026-05-01 15:22 | -27.38379 | -62.25207 | 31882 ft | 447 kts | 335° |
| 2026-05-01 15:22 | -27.33479 | -62.27082 | 31880 ft | 446 kts | 335° |
| 2026-05-01 15:23 | -27.27550 | -62.29342 | 31878 ft | 447 kts | 335° |
| 2026-05-01 15:23 | -27.20612 | -62.31980 | 31882 ft | 446 kts | 335° |
| 2026-05-01 15:24 | -27.15701 | -62.33842 | 31879 ft | 446 kts | 335° |
| 2026-05-01 15:24 | -27.08822 | -62.36457 | 31877 ft | 446 kts | 335° |
| 2026-05-01 15:25 | -27.03896 | -62.38327 | 31875 ft | 446 kts | 335° |
| 2026-05-01 15:25 | -26.97958 | -62.40579 | 31878 ft | 446 kts | 335° |
| 2026-05-01 15:26 | -26.91083 | -62.43185 | 31877 ft | 444 kts | 335° |
| 2026-05-01 15:26 | -26.86128 | -62.45051 | 31877 ft | 446 kts | 335° |
| 2026-05-01 15:27 | -26.80229 | -62.47271 | 31875 ft | 444 kts | 335° |
| 2026-05-01 15:28 | -26.70439 | -62.50959 | 31876 ft | 444 kts | 335° |
| 2026-05-01 15:28 | -26.65529 | -62.52809 | 31875 ft | 444 kts | 335° |
| 2026-05-01 15:29 | -26.56701 | -62.56136 | 31870 ft | 444 kts | 335° |
| 2026-05-01 15:30 | -26.44913 | -62.60567 | 31874 ft | 444 kts | 335° |
| 2026-05-01 15:31 | -26.26206 | -62.67609 | 31876 ft | 443 kts | 335° |
| 2026-05-01 15:32 | -26.15397 | -62.71673 | 31878 ft | 444 kts | 335° |
| 2026-05-01 15:34 | -25.96787 | -62.78615 | 31879 ft | 443 kts | 335° |